Time;durP1;ratioP1;P1;durP2;ratioP2;P2;SDS_P1;SDS_P2;PMS_P1;PMS_P2;Temp;Humidity;BMP_temperature;BMP_pressure;BME280_temperature;BME280_humidity;BME280_pressure;Samples;Min_cycle;Max_cycle;Signal;HPM_P1;HPM_P2
2021/12/14 00:01:25;;;;;;;0.80;0.80;;;3.50;99.90;;;;;;5069090;28;20312;-63
2021/12/14 00:03:56;;;;;;;0.80;0.80;;;3.40;99.90;;;;;;5061147;28;20199;-60
2021/12/14 00:06:25;;;;;;;0.80;0.80;;;3.40;99.90;;;;;;5070234;28;20302;-61
2021/12/14 00:08:56;;;;;;;0.80;0.80;;;3.30;99.90;;;;;;5061682;28;20196;-61
2021/12/14 00:11:35;;;;;;;0.80;0.80;;;3.30;99.90;;;;;;5070287;28;20231;-60
2021/12/14 00:14:26;;;;;;;0.80;0.80;;;3.20;99.90;;;;;;5071823;28;20212;-60
2021/12/14 00:16:57;;;;;;;0.90;0.90;;;3.30;99.90;;;;;;5071566;28;20213;-61
2021/12/14 00:19:24;;;;;;;0.80;0.80;;;3.30;99.90;;;;;;5071643;28;20188;-61
2021/12/14 00:21:54;;;;;;;0.70;0.70;;;3.30;99.90;;;;;;5072022;28;20225;-60
2021/12/14 00:24:26;;;;;;;0.80;0.80;;;3.20;99.90;;;;;;5071972;28;20336;-62
2021/12/14 00:26:55;;;;;;;0.80;0.80;;;3.20;99.90;;;;;;5071596;28;20213;-61
2021/12/14 00:29:26;;;;;;;0.83;0.83;;;3.20;99.90;;;;;;5071592;28;20205;-61
2021/12/14 00:31:55;;;;;;;0.80;0.80;;;3.10;99.90;;;;;;5071352;28;20231;-62
2021/12/14 00:34:34;;;;;;;0.83;0.83;;;3.10;99.90;;;;;;5071902;28;20238;-62
2021/12/14 00:37:01;;;;;;;0.60;0.60;;;3.10;99.90;;;;;;5071858;28;20241;-62
2021/12/14 00:39:29;;;;;;;0.60;0.60;;;3.20;99.90;;;;;;5071561;28;20221;-61
2021/12/14 00:41:56;;;;;;;0.70;0.70;;;3.20;99.90;;;;;;5071514;28;20215;-60
2021/12/14 00:44:23;;;;;;;0.50;0.50;;;3.30;99.90;;;;;;5071488;28;20298;-61
2021/12/14 00:46:51;;;;;;;0.60;0.60;;;3.40;99.90;;;;;;5071398;28;20294;-62
2021/12/14 00:49:18;;;;;;;0.80;0.80;;;3.40;99.90;;;;;;5071958;28;20242;-60
2021/12/14 00:51:45;;;;;;;0.77;0.77;;;3.50;99.90;;;;;;5071651;28;20227;-62
2021/12/14 00:54:16;;;;;;;0.53;0.53;;;3.50;99.90;;;;;;5071720;28;20237;-61
2021/12/14 00:56:46;;;;;;;0.60;0.60;;;3.50;99.90;;;;;;5072638;28;20188;-61
2021/12/14 00:59:13;;;;;;;0.80;0.80;;;3.50;99.90;;;;;;5072223;28;20202;-61
2021/12/14 01:01:44;;;;;;;0.70;0.70;;;3.50;99.90;;;;;;5072708;28;20257;-60
2021/12/14 01:04:14;;;;;;;0.70;0.70;;;3.40;99.90;;;;;;5071994;28;20634;-61
2021/12/14 01:06:45;;;;;;;0.70;0.70;;;3.50;99.90;;;;;;5071141;28;20290;-61
2021/12/14 01:09:12;;;;;;;0.90;0.90;;;3.50;99.90;;;;;;5071887;28;20260;-61
2021/12/14 01:11:46;;;;;;;0.80;0.80;;;3.50;99.90;;;;;;5071866;28;20303;-61
2021/12/14 01:14:18;;;;;;;0.70;0.70;;;3.60;99.90;;;;;;5071941;28;20184;-60
2021/12/14 01:16:52;;;;;;;0.70;0.70;;;3.50;99.90;;;;;;5072281;28;20677;-61
2021/12/14 01:19:26;;;;;;;0.80;0.80;;;3.60;99.90;;;;;;5071651;28;20207;-60
2021/12/14 01:25:03;;;;;;;0.63;0.63;;;3.80;99.90;;;;;;5074249;28;20720;-60
2021/12/14 01:27:37;;;;;;;0.67;0.67;;;3.80;99.90;;;;;;5076268;28;20203;-60
2021/12/14 01:30:14;;;;;;;0.67;0.67;;;3.90;99.90;;;;;;5076388;28;20283;-60
2021/12/14 01:32:45;;;;;;;0.53;0.53;;;3.90;99.90;;;;;;5076570;28;20203;-60
2021/12/14 01:35:14;;;;;;;0.80;0.80;;;3.90;99.90;;;;;;5076660;28;20210;-61
2021/12/14 01:37:58;;;;;;;0.50;0.50;;;3.90;99.90;;;;;;5074833;28;20207;-61
2021/12/14 01:40:52;;;;;;;0.53;0.53;;;3.80;99.90;;;;;;5074714;28;20231;-61
2021/12/14 01:43:19;;;;;;;1.60;0.70;;;3.80;99.90;;;;;;5074634;28;20199;-62
2021/12/14 01:45:47;;;;;;;0.60;0.60;;;3.80;99.90;;;;;;5074431;28;20235;-61
2021/12/14 01:48:14;;;;;;;0.60;0.60;;;3.70;99.90;;;;;;5073295;28;20200;-62
2021/12/14 01:50:43;;;;;;;0.60;0.60;;;3.70;99.90;;;;;;5074212;28;20227;-61
2021/12/14 01:53:11;;;;;;;0.60;0.60;;;3.70;99.90;;;;;;5074240;28;20200;-61
2021/12/14 01:55:39;;;;;;;0.60;0.60;;;3.60;99.90;;;;;;5074180;28;20750;-61
2021/12/14 01:58:09;;;;;;;0.60;0.60;;;3.60;99.90;;;;;;5074130;28;20211;-61
2021/12/14 02:00:42;;;;;;;0.60;0.60;;;3.70;99.90;;;;;;5074269;28;20309;-61
2021/12/14 02:03:11;;;;;;;0.53;0.53;;;3.80;99.90;;;;;;5074168;28;20631;-61
2021/12/14 02:05:44;;;;;;;0.50;0.50;;;3.80;99.90;;;;;;5073741;28;20203;-61
2021/12/14 02:08:17;;;;;;;0.60;0.60;;;3.80;99.90;;;;;;5074013;28;20220;-60
2021/12/14 02:10:44;;;;;;;0.57;0.57;;;3.90;99.90;;;;;;5073950;28;20231;-61
2021/12/14 02:13:11;;;;;;;0.50;0.50;;;3.90;99.90;;;;;;5073289;28;20231;-60
2021/12/14 02:15:42;;;;;;;0.50;0.50;;;3.90;99.90;;;;;;5073370;28;20208;-61
2021/12/14 02:18:16;;;;;;;0.50;0.50;;;3.90;99.90;;;;;;5074039;28;20283;-60
2021/12/14 02:20:47;;;;;;;0.60;0.60;;;3.90;99.90;;;;;;5074066;28;20219;-62
2021/12/14 02:23:15;;;;;;;0.43;0.43;;;3.90;99.90;;;;;;5074303;28;20617;-62
2021/12/14 02:25:42;;;;;;;0.60;0.60;;;3.90;99.90;;;;;;5073920;28;20207;-60
2021/12/14 02:28:16;;;;;;;0.50;0.50;;;3.70;99.90;;;;;;5073347;28;20277;-61
2021/12/14 02:30:43;;;;;;;0.20;0.20;;;3.80;99.90;;;;;;5073784;28;20318;-61
2021/12/14 02:33:13;;;;;;;0.57;0.57;;;3.70;99.90;;;;;;5073823;28;20214;-61
2021/12/14 02:35:41;;;;;;;0.40;0.40;;;3.80;99.90;;;;;;5072344;28;20693;-60
2021/12/14 02:38:12;;;;;;;0.30;0.30;;;3.80;99.90;;;;;;5073090;28;20213;-62
2021/12/14 02:40:57;;;;;;;0.40;0.40;;;3.80;99.90;;;;;;5073280;28;20315;-62
2021/12/14 02:43:30;;;;;;;0.50;0.50;;;3.80;99.90;;;;;;5073410;28;20203;-61
2021/12/14 02:46:04;;;;;;;0.50;0.50;;;3.80;99.90;;;;;;5073060;28;20209;-61
2021/12/14 02:48:32;;;;;;;0.50;0.50;;;3.80;99.90;;;;;;5073015;28;20198;-61
2021/12/14 02:51:07;;;;;;;0.60;0.60;;;3.80;99.90;;;;;;5072920;28;20309;-60
2021/12/14 02:53:36;;;;;;;0.50;0.50;;;3.70;99.90;;;;;;5073280;28;20207;-60
2021/12/14 02:56:09;;;;;;;0.50;0.50;;;3.70;99.90;;;;;;5073191;28;20642;-60
2021/12/14 02:58:37;;;;;;;0.57;0.57;;;3.80;99.90;;;;;;5072863;28;20673;-60
2021/12/14 03:01:05;;;;;;;0.60;0.60;;;3.70;99.90;;;;;;5072929;28;20231;-61
2021/12/14 03:03:32;;;;;;;0.50;0.50;;;3.80;99.90;;;;;;5072681;28;20298;-62
2021/12/14 03:06:00;;;;;;;0.70;0.70;;;3.80;99.90;;;;;;5071521;28;20241;-62
2021/12/14 03:08:29;;;;;;;0.70;0.70;;;3.90;99.90;;;;;;5072408;28;20211;-60
2021/12/14 03:11:10;;;;;;;0.80;0.80;;;3.90;99.90;;;;;;5074163;28;20344;-61
2021/12/14 03:13:39;;;;;;;0.67;0.67;;;4.00;99.90;;;;;;5073119;28;20647;-62
2021/12/14 03:16:10;;;;;;;0.43;0.43;;;4.00;99.90;;;;;;5073415;28;20545;-60
2021/12/14 03:18:39;;;;;;;0.80;0.80;;;4.10;99.90;;;;;;5072739;28;20306;-60
2021/12/14 03:21:10;;;;;;;0.70;0.70;;;4.10;99.90;;;;;;5072950;28;20250;-60
2021/12/14 03:23:41;;;;;;;0.70;0.70;;;4.10;99.90;;;;;;5072579;28;20276;-60
2021/12/14 03:26:13;;;;;;;0.60;0.60;;;4.10;99.90;;;;;;5072456;28;20249;-60
2021/12/14 03:28:41;;;;;;;0.70;0.70;;;4.20;99.90;;;;;;5072549;28;20286;-60
2021/12/14 03:31:23;;;;;;;0.80;0.80;;;4.30;99.90;;;;;;5072300;28;20239;-60
2021/12/14 03:33:54;;;;;;;1.00;1.00;;;4.30;99.90;;;;;;5072441;28;20294;-61
2021/12/14 03:36:25;;;;;;;0.90;0.90;;;4.30;99.90;;;;;;5072331;28;20210;-60
2021/12/14 03:38:59;;;;;;;0.80;0.80;;;4.30;99.90;;;;;;5072152;28;20608;-61
2021/12/14 03:41:31;;;;;;;0.63;0.63;;;4.30;99.90;;;;;;5071415;28;20222;-61
2021/12/14 03:44:03;;;;;;;0.80;0.80;;;4.30;99.90;;;;;;5052221;28;20631;-60
2021/12/14 03:46:34;;;;;;;0.90;0.90;;;4.30;99.90;;;;;;5052214;28;20208;-61
2021/12/14 03:49:04;;;;;;;0.83;0.83;;;4.20;99.90;;;;;;5053369;28;20294;-61
2021/12/14 03:51:31;;;;;;;1.10;1.10;;;4.20;99.90;;;;;;5055331;28;20232;-60
2021/12/14 03:53:59;;;;;;;1.30;1.20;;;4.20;99.90;;;;;;5052434;28;20294;-61
2021/12/14 03:56:28;;;;;;;3.10;1.57;;;4.10;99.90;;;;;;5051928;28;20719;-61
2021/12/14 03:58:56;;;;;;;1.23;1.23;;;4.00;99.90;;;;;;5052309;28;20200;-61
2021/12/14 04:01:27;;;;;;;1.23;1.20;;;3.90;99.90;;;;;;5054896;28;20222;-61
2021/12/14 04:03:57;;;;;;;1.60;1.20;;;3.80;99.90;;;;;;5057018;28;20227;-60
2021/12/14 04:06:25;;;;;;;1.97;1.77;;;3.80;99.90;;;;;;5060199;28;20208;-61
2021/12/14 04:08:52;;;;;;;1.13;1.13;;;3.80;99.90;;;;;;5057232;28;20243;-61
2021/12/14 04:11:19;;;;;;;1.30;1.27;;;3.70;99.90;;;;;;5058505;28;20255;-61
2021/12/14 04:13:50;;;;;;;1.37;1.27;;;3.80;99.90;;;;;;5055594;28;20295;-61
2021/12/14 04:16:20;;;;;;;1.00;1.00;;;3.80;99.90;;;;;;5052626;28;20210;-61
2021/12/14 04:18:48;;;;;;;0.97;0.97;;;3.90;99.90;;;;;;5053317;28;20203;-61
2021/12/14 04:21:15;;;;;;;1.27;1.17;;;4.00;99.90;;;;;;5053458;28;20223;-60
2021/12/14 04:23:48;;;;;;;1.50;1.40;;;4.00;99.90;;;;;;5052134;28;20294;-60
2021/12/14 04:26:16;;;;;;;1.50;1.40;;;4.10;99.90;;;;;;5051748;28;20232;-60
2021/12/14 04:28:47;;;;;;;1.27;1.27;;;4.10;99.90;;;;;;5051962;28;20291;-61
2021/12/14 04:31:15;;;;;;;1.00;1.00;;;4.10;99.90;;;;;;5051599;28;20237;-60
2021/12/14 04:33:46;;;;;;;1.07;1.07;;;4.10;99.90;;;;;;5052160;28;20648;-60
2021/12/14 04:36:18;;;;;;;1.00;1.00;;;4.10;99.90;;;;;;5051649;28;20584;-60
2021/12/14 04:38:58;;;;;;;0.87;0.87;;;4.10;99.90;;;;;;5052073;28;20222;-60
2021/12/14 04:52:33;;;;;;;0.70;0.70;;;3.90;99.90;;;;;;5052662;28;20340;-60
2021/12/14 04:55:02;;;;;;;0.70;0.70;;;4.00;99.90;;;;;;5053833;28;20514;-61
2021/12/14 04:57:32;;;;;;;0.50;0.50;;;4.00;99.90;;;;;;5052973;28;20602;-60
2021/12/14 05:00:14;;;;;;;0.70;0.70;;;4.00;99.90;;;;;;5055449;28;20291;-61
2021/12/14 05:02:42;;;;;;;0.83;0.83;;;4.00;99.90;;;;;;5055424;28;20188;-60
2021/12/14 05:05:11;;;;;;;0.73;0.73;;;4.10;99.90;;;;;;5055465;28;20294;-61
2021/12/14 05:09:19;;;;;;;0.90;0.90;;;4.10;99.90;;;;;;5055309;28;20242;-59
2021/12/14 05:10:34;;;;;;;0.90;0.90;;;4.20;99.90;;;;;;5054677;28;20250;-60
2021/12/14 05:13:01;;;;;;;1.00;1.00;;;4.20;99.90;;;;;;5055289;28;20219;-61
2021/12/14 05:15:29;;;;;;;0.90;0.90;;;4.30;99.90;;;;;;5055310;28;20234;-62
2021/12/14 05:17:56;;;;;;;0.80;0.80;;;4.30;99.90;;;;;;5054825;28;20208;-61
2021/12/14 05:20:24;;;;;;;1.00;1.00;;;4.40;99.90;;;;;;5054889;28;20598;-61
2021/12/14 05:22:50;;;;;;;0.93;0.93;;;4.40;99.90;;;;;;5057009;28;20655;-61
2021/12/14 05:25:21;;;;;;;1.00;1.00;;;4.50;99.90;;;;;;5055510;28;20239;-61
2021/12/14 05:27:51;;;;;;;1.00;1.00;;;4.50;99.90;;;;;;5056267;28;20258;-61
2021/12/14 05:30:24;;;;;;;1.03;1.03;;;4.50;99.90;;;;;;5054888;28;20363;-60
2021/12/14 05:32:58;;;;;;;0.97;0.97;;;4.60;99.90;;;;;;5055294;28;20212;-62
2021/12/14 05:35:25;;;;;;;1.30;1.20;;;4.50;99.90;;;;;;5055088;28;20208;-61
2021/12/14 05:37:54;;;;;;;1.20;1.20;;;4.50;99.90;;;;;;5054679;28;20210;-60
2021/12/14 05:40:40;;;;;;;1.27;1.27;;;4.40;99.90;;;;;;5054981;28;20224;-61
2021/12/14 05:43:07;;;;;;;1.20;1.20;;;4.30;99.90;;;;;;5054272;28;20713;-61
2021/12/14 05:45:38;;;;;;;1.33;1.23;;;4.20;99.90;;;;;;5054582;28;20681;-61
2021/12/14 05:48:09;;;;;;;1.00;1.00;;;4.20;99.90;;;;;;5054389;28;20544;-60
2021/12/14 05:50:39;;;;;;;1.00;1.00;;;4.10;99.90;;;;;;5054708;28;20282;-61
2021/12/14 05:53:07;;;;;;;0.80;0.80;;;4.10;99.90;;;;;;5054522;28;20314;-61
2021/12/14 05:55:38;;;;;;;0.77;0.77;;;4.10;99.90;;;;;;5054574;28;20199;-61
2021/12/14 05:58:13;;;;;;;0.73;0.73;;;4.00;99.90;;;;;;5068542;28;20203;-60
2021/12/14 06:00:44;;;;;;;2.27;1.27;;;4.10;99.90;;;;;;5074612;28;20227;-61
2021/12/14 06:03:18;;;;;;;1.30;1.30;;;4.10;99.90;;;;;;5074438;28;20203;-60
2021/12/14 06:05:45;;;;;;;1.20;1.10;;;4.00;99.90;;;;;;5100082;22;20237;-65
2021/12/14 06:08:23;;;;;;;2.00;1.10;;;4.00;99.90;;;;;;5092733;28;20289;-66
2021/12/14 06:10:51;;;;;;;0.90;0.90;;;4.00;99.90;;;;;;5099349;28;20226;-65
2021/12/14 06:13:19;;;;;;;1.13;1.00;;;4.00;99.90;;;;;;5087236;28;20280;-65
2021/12/14 06:15:47;;;;;;;1.20;1.20;;;4.00;99.90;;;;;;5087255;28;20223;-64
2021/12/14 06:18:24;;;;;;;1.10;1.10;;;3.90;99.90;;;;;;5106819;28;20209;-66
2021/12/14 06:20:52;;;;;;;1.00;1.00;;;3.90;99.90;;;;;;5115062;28;20208;-66
2021/12/14 06:23:25;;;;;;;1.00;1.00;;;3.90;99.90;;;;;;5118778;28;20236;-64
2021/12/14 06:25:52;;;;;;;1.20;1.20;;;4.00;99.90;;;;;;5125518;28;20222;-66
2021/12/14 06:28:24;;;;;;;1.03;1.03;;;4.00;99.90;;;;;;5121218;28;20208;-66
2021/12/14 06:30:51;;;;;;;1.00;1.00;;;4.10;99.90;;;;;;5125565;28;20229;-66
2021/12/14 06:33:18;;;;;;;0.90;0.90;;;4.20;99.90;;;;;;5093145;28;20258;-66
2021/12/14 06:35:49;;;;;;;2.67;2.00;;;4.30;99.90;;;;;;5108391;28;20253;-65
2021/12/14 06:38:28;;;;;;;1.60;1.50;;;4.50;99.90;;;;;;5122838;28;20202;-66
2021/12/14 06:41:04;;;;;;;1.30;1.30;;;4.40;99.90;;;;;;5121919;27;20214;-66
2021/12/14 06:43:34;;;;;;;1.37;1.33;;;4.40;99.90;;;;;;5119456;28;20210;-66
2021/12/14 06:46:05;;;;;;;1.50;1.50;;;4.50;99.90;;;;;;5119359;28;20320;-64
2021/12/14 06:48:39;;;;;;;2.10;1.87;;;4.50;99.90;;;;;;5117618;28;20296;-66
2021/12/14 06:51:11;;;;;;;1.80;1.70;;;4.50;99.90;;;;;;5117135;28;20202;-65
2021/12/14 06:53:38;;;;;;;2.20;2.10;;;4.50;99.90;;;;;;5116971;28;20300;-64
2021/12/14 06:56:08;;;;;;;5.87;3.30;;;4.60;99.90;;;;;;5114870;28;20249;-65
2021/12/14 06:58:38;;;;;;;2.40;2.30;;;4.70;99.90;;;;;;5115765;28;20567;-66
2021/12/14 07:01:09;;;;;;;4.03;2.80;;;4.60;99.90;;;;;;5115108;28;20187;-65
2021/12/14 07:03:43;;;;;;;4.43;3.37;;;4.70;99.90;;;;;;5119153;28;20226;-66
2021/12/14 07:06:13;;;;;;;2.73;2.53;;;4.80;99.90;;;;;;5130233;28;20260;-65
2021/12/14 07:08:40;;;;;;;2.80;2.60;;;4.70;99.90;;;;;;5132191;28;20209;-64
2021/12/14 07:11:07;;;;;;;2.43;2.30;;;4.70;99.90;;;;;;5132758;28;20230;-65
2021/12/14 07:13:39;;;;;;;2.43;2.27;;;4.70;99.90;;;;;;5131984;28;20222;-64
2021/12/14 07:16:19;;;;;;;2.63;2.43;;;4.80;99.90;;;;;;5131007;28;20222;-65
2021/12/14 07:18:50;;;;;;;2.70;2.50;;;4.80;99.90;;;;;;5137690;28;20186;-64
2021/12/14 07:21:36;;;;;;;3.10;2.90;;;4.80;99.90;;;;;;5136137;28;20217;-64
2021/12/14 07:24:30;;;;;;;3.10;2.90;;;4.70;99.90;;;;;;5133099;28;20220;-65
2021/12/14 07:27:19;;;;;;;2.40;2.20;;;4.60;99.90;;;;;;5116548;28;20218;-64
2021/12/14 07:29:46;;;;;;;3.60;3.30;;;4.70;99.90;;;;;;5104806;28;20250;-65
2021/12/14 07:32:13;;;;;;;2.77;2.57;;;4.50;99.90;;;;;;5114904;28;20241;-65
2021/12/14 07:34:40;;;;;;;2.33;2.23;;;4.60;99.90;;;;;;5113737;28;20205;-65
2021/12/14 07:37:08;;;;;;;3.20;3.00;;;4.70;99.90;;;;;;5113959;28;20322;-67
2021/12/14 07:39:35;;;;;;;4.43;3.07;;;4.80;99.90;;;;;;5114191;28;20247;-67
2021/12/14 07:42:03;;;;;;;3.53;3.23;;;4.80;99.90;;;;;;5113133;28;20882;-66
2021/12/14 07:44:33;;;;;;;4.00;3.50;;;4.70;99.90;;;;;;5113141;28;20730;-65
2021/12/14 07:47:04;;;;;;;3.40;3.10;;;4.80;99.90;;;;;;5113135;28;20341;-65
2021/12/14 07:49:33;;;;;;;3.03;2.83;;;4.90;99.90;;;;;;5095679;28;20285;-65
2021/12/14 07:52:04;;;;;;;3.50;3.20;;;4.90;99.90;;;;;;5099913;28;20195;-65
2021/12/14 07:54:35;;;;;;;3.00;2.80;;;5.00;99.90;;;;;;5078559;28;20777;-63
2021/12/14 07:57:05;;;;;;;3.13;2.93;;;5.00;99.90;;;;;;5085227;28;20250;-65
2021/12/14 07:59:34;;;;;;;3.33;3.13;;;5.10;99.90;;;;;;5073637;28;20554;-66
2021/12/14 08:02:12;;;;;;;3.60;3.30;;;5.10;99.90;;;;;;5074016;28;20199;-64
2021/12/14 08:04:41;;;;;;;3.80;2.80;;;5.10;99.90;;;;;;5091760;28;20198;-64
2021/12/14 08:07:09;;;;;;;4.43;4.03;;;5.10;99.90;;;;;;5094012;28;20259;-66
2021/12/14 08:09:47;;;;;;;3.93;3.53;;;5.30;99.90;;;;;;5082719;28;20292;-65
2021/12/14 08:12:33;;;;;;;4.83;4.43;;;5.00;99.90;;;;;;5085758;28;20208;-65
2021/12/14 08:15:04;;;;;;;4.03;3.63;;;4.90;99.90;;;;;;5084866;28;20623;-64
2021/12/14 08:17:31;;;;;;;3.83;3.53;;;4.90;99.90;;;;;;5079668;28;20213;-66
2021/12/14 08:19:58;;;;;;;3.43;3.23;;;4.90;99.90;;;;;;5085582;28;20194;-64
2021/12/14 08:22:29;;;;;;;3.27;3.07;;;4.90;99.90;;;;;;5088175;28;20568;-64
2021/12/14 08:24:58;;;;;;;3.83;3.20;;;4.90;99.90;;;;;;5085458;28;20241;-65
2021/12/14 08:27:28;;;;;;;3.20;2.90;;;4.80;99.90;;;;;;5078451;28;20233;-64
2021/12/14 08:29:58;;;;;;;2.50;2.40;;;4.70;99.90;;;;;;5077706;28;20546;-65
2021/12/14 08:32:30;;;;;;;2.13;2.03;;;4.70;99.90;;;;;;5080143;28;20327;-64
2021/12/14 08:34:57;;;;;;;2.03;1.93;;;4.80;99.90;;;;;;5089166;28;20239;-64
2021/12/14 08:37:29;;;;;;;2.27;2.17;;;5.00;99.90;;;;;;5091697;28;20710;-65
2021/12/14 08:40:03;;;;;;;2.10;2.00;;;5.10;99.90;;;;;;5081020;28;20294;-66
2021/12/14 08:42:39;;;;;;;2.30;2.20;;;5.30;99.90;;;;;;5079362;28;20558;-66
2021/12/14 08:45:25;;;;;;;2.20;2.10;;;5.40;99.90;;;;;;5078051;28;20215;-65
2021/12/14 08:47:54;;;;;;;2.70;2.57;;;5.40;99.90;;;;;;5093214;28;20245;-65
2021/12/14 08:50:24;;;;;;;2.27;2.17;;;5.50;99.90;;;;;;5084307;28;20538;-65
2021/12/14 08:52:52;;;;;;;3.63;3.10;;;5.50;99.90;;;;;;5081307;28;20680;-65
2021/12/14 08:55:23;;;;;;;2.60;2.40;;;5.60;99.90;;;;;;5086011;28;20203;-65
2021/12/14 08:57:51;;;;;;;2.70;2.50;;;5.50;99.90;;;;;;5096050;28;20224;-64
2021/12/14 09:00:22;;;;;;;2.37;2.27;;;5.50;99.90;;;;;;5084478;28;20199;-66
2021/12/14 09:02:52;;;;;;;2.50;2.40;;;5.60;99.90;;;;;;5089478;28;20420;-66
2021/12/14 09:05:24;;;;;;;2.87;2.70;;;5.70;99.90;;;;;;5092234;28;20210;-67
2021/12/14 09:07:51;;;;;;;2.97;2.77;;;5.70;99.90;;;;;;5094514;28;20226;-65
2021/12/14 09:10:23;;;;;;;3.00;2.80;;;5.80;99.90;;;;;;5096559;28;20206;-67
2021/12/14 09:12:52;;;;;;;3.20;3.00;;;5.80;99.90;;;;;;5093139;28;20209;-65
2021/12/14 09:15:24;;;;;;;3.40;3.20;;;5.80;99.90;;;;;;5099281;28;20203;-66
2021/12/14 09:17:52;;;;;;;3.53;3.33;;;5.80;99.90;;;;;;5105148;28;20202;-66
2021/12/14 09:20:21;;;;;;;4.53;4.17;;;5.80;99.90;;;;;;5098720;28;20203;-65
2021/12/14 09:22:54;;;;;;;3.80;3.60;;;5.80;99.90;;;;;;5106474;28;20199;-66
2021/12/14 09:25:26;;;;;;;3.50;3.30;;;5.80;99.90;;;;;;5095751;28;20227;-66
2021/12/14 09:27:55;;;;;;;3.47;3.27;;;5.80;99.90;;;;;;5095711;28;20206;-65
2021/12/14 09:30:25;;;;;;;2.80;2.70;;;5.90;99.90;;;;;;5091207;28;20203;-64
2021/12/14 09:32:52;;;;;;;3.47;3.27;;;6.10;99.90;;;;;;5094315;28;20258;-65
2021/12/14 09:35:24;;;;;;;3.03;2.83;;;6.10;99.90;;;;;;5094356;28;20198;-66
2021/12/14 09:37:54;;;;;;;4.03;3.73;;;6.10;99.90;;;;;;5098615;28;20214;-67
2021/12/14 09:40:26;;;;;;;4.07;3.77;;;6.00;99.90;;;;;;5094956;28;20209;-64
2021/12/14 09:42:54;;;;;;;3.70;3.50;;;5.80;99.90;;;;;;5106431;28;20221;-65
2021/12/14 09:45:25;;;;;;;3.97;3.67;;;5.70;99.90;;;;;;5101842;28;20222;-66
2021/12/14 09:47:52;;;;;;;4.87;4.47;;;5.70;99.90;;;;;;5109523;28;20208;-65
2021/12/14 09:50:24;;;;;;;5.57;5.07;;;5.80;99.90;;;;;;5112259;28;20203;-65
2021/12/14 09:52:51;;;;;;;5.70;5.30;;;5.80;99.90;;;;;;5095300;28;20208;-67
2021/12/14 09:55:29;;;;;;;4.43;4.13;;;5.90;99.90;;;;;;5095764;28;20209;-67
2021/12/14 09:57:59;;;;;;;5.77;5.27;;;5.90;99.90;;;;;;5092815;28;20197;-65
2021/12/14 10:00:32;;;;;;;7.63;7.03;;;6.00;99.90;;;;;;5090891;28;20199;-65
2021/12/14 10:03:01;;;;;;;7.73;7.13;;;6.00;99.90;;;;;;5094961;28;20204;-66
2021/12/14 10:05:36;;;;;;;7.73;7.07;;;5.70;99.90;;;;;;5093836;28;20237;-66
2021/12/14 10:08:14;;;;;;;6.97;6.33;;;5.80;99.90;;;;;;5089253;28;20201;-66
2021/12/14 10:10:44;;;;;;;5.97;5.23;;;5.70;99.90;;;;;;5097645;28;20202;-67
2021/12/14 10:13:11;;;;;;;5.10;4.73;;;5.80;99.90;;;;;;5091941;28;20203;-67
2021/12/14 10:15:41;;;;;;;5.60;5.23;;;5.80;99.90;;;;;;5090668;28;20220;-64
2021/12/14 10:18:17;;;;;;;5.40;5.00;;;5.70;99.90;;;;;;5088569;28;20202;-66
2021/12/14 10:20:48;;;;;;;5.30;4.90;;;5.60;99.90;;;;;;5093015;28;20657;-67
2021/12/14 10:23:17;;;;;;;4.40;4.10;;;5.60;99.90;;;;;;5102069;28;20207;-64
2021/12/14 10:25:46;;;;;;;4.53;4.20;;;5.80;99.90;;;;;;5108709;28;20234;-64
2021/12/14 10:28:13;;;;;;;4.50;4.20;;;5.90;99.90;;;;;;5096572;28;20238;-66
2021/12/14 10:30:44;;;;;;;3.70;3.50;;;5.90;99.90;;;;;;5096957;28;20202;-66
2021/12/14 10:33:12;;;;;;;4.40;4.10;;;5.90;99.90;;;;;;5105216;28;20203;-64
2021/12/14 10:35:46;;;;;;;4.03;3.73;;;5.90;99.90;;;;;;5099613;28;20569;-66
2021/12/14 10:38:22;;;;;;;4.70;4.40;;;6.00;99.90;;;;;;5095951;28;20282;-65
2021/12/14 10:43:43;;;;;;;4.57;4.27;;;6.00;99.90;;;;;;5098209;28;20197;-65
2021/12/14 10:46:15;;;;;;;3.70;3.50;;;6.00;99.90;;;;;;5088936;28;20219;-67
2021/12/14 10:48:46;;;;;;;3.67;3.47;;;6.00;99.90;;;;;;5095363;28;20206;-68
2021/12/14 10:51:16;;;;;;;3.50;3.30;;;5.90;99.90;;;;;;5100748;28;20285;-65
2021/12/14 10:53:46;;;;;;;3.20;3.00;;;5.90;99.90;;;;;;5106981;28;20308;-65
2021/12/14 10:56:18;;;;;;;3.20;3.00;;;6.00;99.90;;;;;;5096169;28;20275;-68
2021/12/14 10:58:54;;;;;;;2.50;2.40;;;6.10;99.90;;;;;;5095994;28;20689;-66
2021/12/14 11:01:27;;;;;;;3.30;3.10;;;6.30;99.90;;;;;;5078504;28;20282;-67
2021/12/14 11:03:58;;;;;;;3.67;3.47;;;6.40;99.90;;;;;;5075614;28;20205;-65
2021/12/14 11:06:29;;;;;;;3.00;2.83;;;6.50;99.90;;;;;;5074738;28;20271;-66
2021/12/14 11:09:39;;;;;;;2.63;2.53;;;6.50;99.90;;;;;;5079636;28;20202;-66
2021/12/14 11:11:55;;;;;;;2.10;2.00;;;6.60;99.90;;;;;;5079176;28;20204;-66
2021/12/14 11:14:25;;;;;;;2.47;2.37;;;6.70;99.90;;;;;;5076450;28;20298;-65
2021/12/14 11:19:43;;;;;;;2.70;2.60;;;6.70;99.90;;;;;;5081583;28;20251;-66
2021/12/14 11:22:14;;;;;;;2.50;2.40;;;6.70;99.90;;;;;;5078074;28;20542;-65
2021/12/14 11:24:43;;;;;;;2.90;2.70;;;6.90;99.90;;;;;;5076594;28;20227;-65
2021/12/14 11:27:20;;;;;;;2.77;2.67;;;6.90;99.90;;;;;;5073077;28;20582;-66
2021/12/14 11:29:52;;;;;;;3.97;3.67;;;6.90;99.90;;;;;;5074134;28;20309;-65
2021/12/14 11:32:21;;;;;;;3.60;3.40;;;6.90;99.90;;;;;;5088122;28;20285;-66
2021/12/14 11:34:49;;;;;;;5.10;4.80;;;6.90;99.90;;;;;;5089632;28;20249;-65
2021/12/14 11:37:23;;;;;;;5.00;4.70;;;7.00;99.90;;;;;;5082651;28;20647;-65
2021/12/14 11:39:53;;;;;;;5.60;5.20;;;7.10;99.90;;;;;;5089250;28;20270;-65
2021/12/14 11:42:26;;;;;;;5.33;5.03;;;7.20;99.90;;;;;;5084158;28;20214;-63
2021/12/14 11:45:01;;;;;;;5.17;4.80;;;7.10;99.90;;;;;;5080149;28;20200;-63
2021/12/14 11:47:46;;;;;;;4.83;4.53;;;7.10;99.90;;;;;;5078506;28;20213;-66
2021/12/14 11:50:20;;;;;;;4.60;4.30;;;7.00;99.90;;;;;;5078172;28;20203;-66
2021/12/14 11:52:51;;;;;;;5.00;4.60;;;7.10;99.90;;;;;;5078027;28;20203;-65
2021/12/14 11:55:28;;;;;;;4.40;4.10;;;7.10;99.90;;;;;;5089276;28;20688;-66
2021/12/14 11:58:16;;;;;;;4.23;4.03;;;7.10;99.90;;;;;;5088958;28;20679;-65
2021/12/14 12:00:48;;;;;;;4.70;4.40;;;7.10;99.90;;;;;;5088828;28;20206;-66
2021/12/14 12:03:21;;;;;;;5.33;5.03;;;7.30;99.90;;;;;;5088773;28;20289;-65
2021/12/14 12:05:59;;;;;;;5.65;5.25;;;7.40;99.90;;;;;;5125066;22;20249;31
2021/12/14 12:11:11;;;;;;;5.80;5.30;;;7.40;99.90;;;;;;5014924;28;20603;-62
2021/12/14 12:13:41;;;;;;;5.27;4.97;;;7.40;99.90;;;;;;5022917;28;20290;-63
2021/12/14 12:16:14;;;;;;;6.90;6.40;;;7.30;99.90;;;;;;5024526;28;20225;-63
2021/12/14 12:19:07;;;;;;;6.70;6.30;;;7.20;99.90;;;;;;5029960;28;20215;-61
2021/12/14 12:21:35;;;;;;;7.07;6.57;;;7.10;99.90;;;;;;5025329;28;20680;-64
2021/12/14 12:24:03;;;;;;;6.80;6.30;;;7.10;99.90;;;;;;5015191;28;20201;-61
2021/12/14 12:26:30;;;;;;;6.97;6.50;;;7.20;99.90;;;;;;5014598;28;20220;-62
2021/12/14 12:29:06;;;;;;;5.80;5.40;;;7.20;99.90;;;;;;5015409;28;20212;-64
2021/12/14 12:31:39;;;;;;;5.00;4.70;;;7.10;99.90;;;;;;5015000;28;20200;-64
2021/12/14 12:34:11;;;;;;;5.47;5.17;;;7.10;99.90;;;;;;5015016;28;20279;-62
2021/12/14 12:36:41;;;;;;;3.83;3.63;;;7.10;99.90;;;;;;5015844;28;20249;-64
2021/12/14 12:39:11;;;;;;;3.90;3.70;;;6.90;99.90;;;;;;5015138;28;20725;-61
2021/12/14 12:41:45;;;;;;;3.97;3.77;;;7.10;99.90;;;;;;5016190;28;20606;-62
2021/12/14 12:44:15;;;;;;;3.53;3.33;;;7.00;99.90;;;;;;5018777;28;20256;-62
2021/12/14 12:46:46;;;;;;;4.00;3.80;;;7.00;99.90;;;;;;5014854;28;20217;-62
2021/12/14 12:49:19;;;;;;;3.43;3.23;;;6.90;99.90;;;;;;5014704;28;20208;-62
2021/12/14 12:52:09;;;;;;;3.33;3.13;;;7.00;99.90;;;;;;5023504;28;20643;-62
2021/12/14 12:54:46;;;;;;;3.80;3.60;;;7.00;99.90;;;;;;5024054;28;20707;-62
2021/12/14 12:57:31;;;;;;;3.70;3.50;;;7.00;99.90;;;;;;5013335;28;20231;-62
2021/12/14 13:00:17;;;;;;;3.30;3.17;;;6.90;99.90;;;;;;5031718;28;20206;-63
2021/12/14 13:02:47;;;;;;;3.77;3.57;;;6.90;99.90;;;;;;5016244;28;20212;-62
2021/12/14 13:05:25;;;;;;;3.10;3.00;;;6.90;99.90;;;;;;5022878;28;20265;-61
2021/12/14 13:07:56;;;;;;;3.10;2.90;;;7.00;99.90;;;;;;5019141;28;20232;-62
2021/12/14 13:10:28;;;;;;;3.73;3.53;;;7.00;99.90;;;;;;5023949;28;20204;-63
2021/12/14 13:13:02;;;;;;;3.27;3.17;;;7.00;99.90;;;;;;5032225;28;20236;-62
2021/12/14 13:16:05;;;;;;;3.27;3.10;;;7.00;99.90;;;;;;5032744;28;20205;-62
2021/12/14 13:18:44;;;;;;;2.87;2.77;;;7.00;99.90;;;;;;5032630;28;20208;-66
2021/12/14 13:21:33;;;;;;;2.67;2.57;;;7.00;99.90;;;;;;5036567;28;20667;-64
2021/12/14 13:24:09;;;;;;;2.70;2.60;;;7.10;99.90;;;;;;5036556;28;20216;-62
2021/12/14 13:26:53;;;;;;;3.10;2.90;;;7.20;99.90;;;;;;5036381;28;20264;-65
2021/12/14 13:29:31;;;;;;;3.37;3.10;;;7.30;99.90;;;;;;5036806;28;20192;-64
2021/12/14 13:32:02;;;;;;;3.40;3.20;;;7.30;99.90;;;;;;5036553;28;20260;-61
2021/12/14 13:34:32;;;;;;;3.53;3.33;;;7.20;99.90;;;;;;5036675;28;20248;-63
2021/12/14 13:37:00;;;;;;;3.47;3.27;;;7.20;99.90;;;;;;5036733;28;20260;-61
2021/12/14 13:39:28;;;;;;;3.20;3.00;;;7.10;99.90;;;;;;5037880;28;20262;-63
2021/12/14 13:42:43;;;;;;;3.13;3.00;;;7.10;99.90;;;;;;5037066;28;20204;-62
2021/12/14 13:45:15;;;;;;;3.50;3.30;;;7.10;99.90;;;;;;5037070;28;20225;-63